Time;durP1;ratioP1;P1;durP2;ratioP2;P2;SDS_P1;SDS_P2;PMS_P1;PMS_P2;Temp;Humidity;BMP_temperature;BMP_pressure;BME280_temperature;BME280_humidity;BME280_pressure;Samples;Min_cycle;Max_cycle;Signal;HPM_P1;HPM_P2
2023/05/16 00:00:54;;;;;;;16.13;12.25;;;11.60;99.90;;;;;;5026907;28;20037;-78
2023/05/16 00:03:20;;;;;;;13.93;11.32;;;11.50;99.90;;;;;;5026405;28;20033;-78
2023/05/16 00:05:45;;;;;;;19.02;10.25;;;11.50;99.90;;;;;;5026716;28;20032;-78
2023/05/16 00:08:11;;;;;;;12.85;8.85;;;11.60;99.90;;;;;;5010673;28;20029;-78
2023/05/16 00:10:37;;;;;;;16.33;9.75;;;11.60;99.90;;;;;;5025803;28;20064;-78
2023/05/16 00:13:03;;;;;;;15.23;9.32;;;11.70;99.90;;;;;;5007708;28;20037;-78
2023/05/16 00:15:29;;;;;;;12.75;8.27;;;11.50;99.90;;;;;;5027334;28;20048;-78
2023/05/16 00:17:58;;;;;;;16.85;8.57;;;11.30;99.90;;;;;;5024176;28;20038;-78
2023/05/16 00:20:26;;;;;;;15.20;7.50;;;11.30;99.90;;;;;;5022918;28;20634;-77
2023/05/16 00:22:52;;;;;;;15.30;6.22;;;11.20;99.90;;;;;;5026600;28;20108;-79
2023/05/16 00:25:18;;;;;;;8.82;7.50;;;11.20;99.90;;;;;;5004901;28;21008;-78
2023/05/16 00:27:43;;;;;;;9.80;7.63;;;11.10;99.90;;;;;;5039477;28;20045;-78
2023/05/16 00:30:09;;;;;;;10.25;6.95;;;11.10;99.90;;;;;;5009990;28;20033;-78
2023/05/16 00:32:35;;;;;;;8.05;6.80;;;11.00;99.90;;;;;;5042813;28;20112;-78
2023/05/16 00:35:05;;;;;;;10.60;6.78;;;11.00;99.90;;;;;;5041996;28;20041;-78
2023/05/16 00:37:31;;;;;;;15.52;5.63;;;11.00;99.90;;;;;;5027028;28;20033;-77
2023/05/16 00:39:56;;;;;;;13.57;6.30;;;11.00;99.90;;;;;;5011170;28;20036;-78
2023/05/16 00:42:22;;;;;;;8.75;5.40;;;10.90;99.90;;;;;;5024456;28;20037;-77
2023/05/16 00:44:47;;;;;;;6.50;5.57;;;10.90;99.90;;;;;;5022843;28;20051;-79
2023/05/16 00:47:13;;;;;;;5.63;4.18;;;10.90;99.90;;;;;;5009283;28;20055;-79
2023/05/16 00:49:39;;;;;;;7.60;4.88;;;10.90;99.90;;;;;;5026505;28;20033;-78
2023/05/16 00:52:05;;;;;;;5.30;4.03;;;10.80;99.90;;;;;;5026092;28;20392;-77
2023/05/16 00:54:30;;;;;;;6.47;4.00;;;10.80;99.90;;;;;;5009906;28;20068;-76
2023/05/16 00:56:56;;;;;;;5.57;4.55;;;10.80;99.90;;;;;;5039360;28;20048;-77
2023/05/16 00:59:23;;;;;;;4.50;3.90;;;10.70;99.90;;;;;;5026192;28;20060;-77
2023/05/16 01:01:49;;;;;;;4.68;3.53;;;10.70;99.90;;;;;;5009283;28;20037;-77
2023/05/16 01:04:14;;;;;;;5.15;4.65;;;10.70;99.90;;;;;;5025105;28;20033;-80
2023/05/16 01:06:40;;;;;;;6.00;4.53;;;10.70;99.90;;;;;;5024212;28;20033;-79
2023/05/16 01:09:06;;;;;;;5.43;4.40;;;10.70;99.90;;;;;;5006921;28;20033;-77
2023/05/16 01:12:11;;;;;;;7.88;5.05;;;10.70;99.90;;;;;;5026832;28;20095;-79
2023/05/16 01:14:59;;;;;;;7.22;4.82;;;10.50;99.90;;;;;;4996684;28;20044;-79
2023/05/16 01:17:58;;;;;;;8.45;5.13;;;10.40;99.90;;;;;;5041193;28;20111;-77
2023/05/16 01:20:36;;;;;;;11.18;4.97;;;10.30;99.90;;;;;;5041578;28;20477;-79
2023/05/16 01:23:43;;;;;;;9.93;6.28;;;10.30;99.90;;;;;;5029731;28;20029;-79
2023/05/16 01:26:21;;;;;;;8.20;5.90;;;10.30;99.90;;;;;;4935897;28;20067;-79
2023/05/16 01:28:48;;;;;;;7.40;4.68;;;10.20;99.90;;;;;;5023045;28;20037;-78
2023/05/16 01:31:15;;;;;;;7.43;5.63;;;10.20;99.90;;;;;;5009750;28;20021;-79
2023/05/16 01:33:40;;;;;;;8.82;4.93;;;10.20;99.90;;;;;;5042292;28;20028;-78
2023/05/16 01:36:30;;;;;;;10.05;4.07;;;10.00;99.90;;;;;;5025151;28;20512;-79
2023/05/16 01:39:02;;;;;;;9.15;3.72;;;9.90;99.90;;;;;;5010149;28;20030;-78
2023/05/16 01:41:39;;;;;;;8.00;2.80;;;9.80;99.90;;;;;;5040500;28;20037;-79
2023/05/16 01:44:10;;;;;;;12.35;4.32;;;9.80;99.90;;;;;;5009472;28;20504;-79
2023/05/16 01:46:37;;;;;;;9.90;3.88;;;9.80;99.90;;;;;;5009206;28;20033;-79
2023/05/16 01:49:30;;;;;;;9.50;4.22;;;9.70;99.90;;;;;;5008547;28;20171;-78
2023/05/16 01:52:00;;;;;;;12.15;3.97;;;9.70;99.90;;;;;;5011158;28;20025;-78
2023/05/16 01:54:25;;;;;;;12.57;4.18;;;9.70;99.90;;;;;;5025169;28;20041;-78
2023/05/16 01:56:52;;;;;;;15.13;4.10;;;9.80;99.90;;;;;;5008312;28;20025;-78
2023/05/16 01:59:20;;;;;;;13.02;3.63;;;9.70;99.90;;;;;;5004701;28;20037;-77
2023/05/16 02:01:46;;;;;;;12.15;3.90;;;9.70;99.90;;;;;;5009126;28;20219;-78
2023/05/16 02:04:13;;;;;;;18.02;3.22;;;9.60;99.90;;;;;;5023853;28;20037;-78
2023/05/16 02:06:39;;;;;;;12.70;3.58;;;9.50;99.90;;;;;;5009345;28;20595;-78
2023/05/16 02:09:05;;;;;;;11.05;3.15;;;9.50;99.90;;;;;;5024498;28;20123;-78
2023/05/16 02:11:31;;;;;;;15.57;3.17;;;9.50;99.90;;;;;;5009277;28;20485;-78
2023/05/16 02:13:56;;;;;;;13.60;3.28;;;9.30;99.90;;;;;;5024134;28;20092;-78
2023/05/16 02:16:22;;;;;;;10.30;3.38;;;9.40;99.90;;;;;;5018995;28;20553;-78
2023/05/16 02:18:47;;;;;;;12.48;3.55;;;9.40;99.90;;;;;;5025227;28;20403;-78
2023/05/16 02:21:13;;;;;;;12.88;3.58;;;9.30;99.90;;;;;;5009096;28;20029;-79
2023/05/16 02:23:39;;;;;;;17.60;4.75;;;9.20;99.90;;;;;;5022039;28;20035;-80
2023/05/16 02:26:05;;;;;;;13.55;4.60;;;9.30;99.90;;;;;;5041319;28;20029;-79
2023/05/16 02:28:30;;;;;;;14.55;5.15;;;9.20;99.90;;;;;;5010308;28;20040;-79
2023/05/16 02:30:57;;;;;;;10.00;4.32;;;9.20;99.90;;;;;;5025204;28;20033;-79
2023/05/16 02:33:23;;;;;;;17.55;4.43;;;9.20;99.90;;;;;;5023488;28;20025;-79
2023/05/16 02:35:49;;;;;;;11.73;3.78;;;9.20;99.90;;;;;;5028905;28;20040;-79
2023/05/16 02:38:16;;;;;;;12.38;3.75;;;9.30;99.90;;;;;;5029756;28;20080;-78
2023/05/16 02:40:42;;;;;;;15.68;4.07;;;9.20;99.90;;;;;;5029768;28;20090;-79
2023/05/16 02:43:07;;;;;;;17.27;5.03;;;9.20;99.90;;;;;;5011401;28;20136;-79
2023/05/16 02:45:33;;;;;;;13.40;4.68;;;9.20;99.90;;;;;;5029445;28;20557;-79
2023/05/16 02:47:58;;;;;;;12.10;4.45;;;9.20;99.90;;;;;;5028248;28;20447;-79
2023/05/16 02:50:24;;;;;;;12.60;4.22;;;9.20;99.90;;;;;;5012162;28;20037;-79
2023/05/16 02:52:50;;;;;;;17.35;5.32;;;9.20;99.90;;;;;;5010303;28;20029;-80
2023/05/16 02:55:15;;;;;;;11.20;4.22;;;9.30;99.90;;;;;;5028866;28;20497;-82
2023/05/16 02:57:41;;;;;;;18.95;5.10;;;9.30;99.90;;;;;;5026664;28;20278;-81
2023/05/16 03:00:09;;;;;;;14.48;3.97;;;9.20;99.90;;;;;;5012864;28;20040;-80
2023/05/16 03:02:35;;;;;;;12.00;4.45;;;9.30;99.90;;;;;;5027092;28;20033;-80
2023/05/16 03:05:00;;;;;;;22.33;4.45;;;9.30;99.90;;;;;;5027557;28;20404;-80
2023/05/16 03:07:26;;;;;;;20.50;4.10;;;9.20;99.90;;;;;;5011693;28;20393;-80
2023/05/16 03:09:51;;;;;;;15.70;4.80;;;9.10;99.90;;;;;;5010616;28;20129;-81
2023/05/16 03:12:17;;;;;;;20.23;4.53;;;9.10;99.90;;;;;;5026594;28;20090;-80
2023/05/16 03:14:42;;;;;;;21.65;5.35;;;9.20;99.90;;;;;;5027378;28;20036;-80
2023/05/16 03:17:08;;;;;;;22.25;5.00;;;9.00;99.90;;;;;;5026964;28;20508;-80
2023/05/16 03:19:33;;;;;;;15.93;4.03;;;9.00;99.90;;;;;;5029003;28;20839;-80
2023/05/16 03:21:59;;;;;;;15.10;4.43;;;9.00;99.90;;;;;;5010110;28;20032;-80
2023/05/16 03:24:25;;;;;;;18.02;4.95;;;8.80;99.90;;;;;;5010884;28;20100;-80
2023/05/16 03:26:50;;;;;;;25.20;4.20;;;8.90;99.90;;;;;;5010038;28;20064;-80
2023/05/16 03:29:16;;;;;;;20.73;3.53;;;8.80;99.90;;;;;;5040543;28;20025;-80
2023/05/16 03:31:42;;;;;;;26.77;5.03;;;8.90;99.90;;;;;;5010281;28;20029;-80
2023/05/16 03:34:07;;;;;;;17.35;5.15;;;8.70;99.90;;;;;;5011745;28;20036;-79
2023/05/16 03:36:34;;;;;;;21.30;4.40;;;8.80;99.90;;;;;;5026086;28;20025;-79
2023/05/16 03:39:00;;;;;;;20.92;5.35;;;8.80;99.90;;;;;;5026829;28;20029;-80
2023/05/16 03:41:25;;;;;;;18.45;4.25;;;8.70;99.90;;;;;;5010516;28;20032;-79
2023/05/16 03:43:51;;;;;;;31.23;4.18;;;8.70;99.90;;;;;;5028318;28;20025;-81
2023/05/16 03:46:17;;;;;;;22.00;3.25;;;8.60;99.90;;;;;;5025866;28;20037;-79
2023/05/16 03:48:42;;;;;;;18.67;3.97;;;8.60;99.90;;;;;;5011442;28;20035;-80
2023/05/16 03:51:08;;;;;;;16.98;3.42;;;8.50;99.90;;;;;;5027857;28;20164;-81
2023/05/16 03:53:33;;;;;;;14.93;3.88;;;8.50;99.90;;;;;;5041200;28;20032;-80
2023/05/16 03:55:59;;;;;;;22.60;3.70;;;8.50;99.90;;;;;;5026962;28;20566;-81
2023/05/16 03:58:25;;;;;;;18.58;3.60;;;8.40;99.90;;;;;;5010745;28;20079;-80
2023/05/16 04:00:50;;;;;;;23.50;4.43;;;8.40;99.90;;;;;;5011639;28;20457;-81
2023/05/16 04:03:16;;;;;;;17.40;4.40;;;8.20;99.90;;;;;;5010122;28;20072;-80
2023/05/16 04:05:42;;;;;;;17.08;3.25;;;8.20;99.90;;;;;;5011506;28;20111;-81
2023/05/16 04:08:07;;;;;;;16.02;3.50;;;8.30;99.90;;;;;;5010471;28;20041;-81
2023/05/16 04:10:33;;;;;;;25.83;3.97;;;8.30;99.90;;;;;;5009938;28;20029;-81
2023/05/16 04:12:58;;;;;;;15.30;3.28;;;8.20;99.90;;;;;;5024967;28;20098;-80
2023/05/16 04:15:24;;;;;;;15.70;2.92;;;8.20;99.90;;;;;;5003442;28;20041;-81
2023/05/16 04:17:49;;;;;;;15.90;3.05;;;8.20;99.90;;;;;;5010406;28;20147;-80
2023/05/16 04:20:15;;;;;;;25.85;3.42;;;8.20;99.90;;;;;;5008420;28;20029;-81
2023/05/16 04:22:41;;;;;;;14.15;4.32;;;8.20;99.90;;;;;;5010890;28;20031;-80
2023/05/16 04:25:07;;;;;;;21.65;4.38;;;8.20;99.90;;;;;;5008274;28;20044;-80
2023/05/16 04:27:32;;;;;;;18.27;2.97;;;8.00;99.90;;;;;;5009358;28;20055;-80
2023/05/16 04:29:58;;;;;;;14.80;3.70;;;8.20;99.90;;;;;;5000545;28;20461;-80
2023/05/16 04:32:24;;;;;;;23.30;3.92;;;8.00;99.90;;;;;;5026777;28;20025;-79
2023/05/16 04:34:53;;;;;;;18.23;3.88;;;8.10;99.90;;;;;;5008745;28;20531;-79
2023/05/16 04:37:19;;;;;;;10.85;2.72;;;8.00;99.90;;;;;;5023574;28;20036;-82
2023/05/16 04:39:45;;;;;;;23.48;4.22;;;8.20;99.90;;;;;;4999525;28;20378;-82
2023/05/16 04:42:11;;;;;;;16.63;3.17;;;8.10;99.90;;;;;;5000006;28;20045;-80
2023/05/16 04:44:36;;;;;;;21.25;3.30;;;8.20;99.90;;;;;;5021320;28;20491;-80
2023/05/16 04:47:02;;;;;;;23.75;3.08;;;8.30;99.90;;;;;;5026617;28;20569;-80
2023/05/16 04:49:29;;;;;;;20.27;3.85;;;8.30;99.90;;;;;;5010335;28;20037;-81
2023/05/16 04:51:54;;;;;;;15.75;3.00;;;8.40;99.90;;;;;;5026929;28;20989;-81
2023/05/16 04:54:20;;;;;;;17.55;3.75;;;8.60;99.90;;;;;;5010608;28;20033;-81
2023/05/16 04:56:45;;;;;;;16.80;3.03;;;8.60;99.90;;;;;;5010140;28;20478;-80
2023/05/16 04:59:11;;;;;;;22.17;3.95;;;8.70;99.90;;;;;;5027229;28;20037;-81
2023/05/16 05:01:37;;;;;;;15.77;3.05;;;8.80;99.90;;;;;;5025981;28;20918;-81
2023/05/16 05:04:02;;;;;;;20.52;4.13;;;8.90;99.90;;;;;;5026763;28;20734;-82
2023/05/16 05:06:28;;;;;;;16.73;3.55;;;9.00;99.90;;;;;;5010186;28;20138;-81
2023/05/16 05:08:53;;;;;;;10.82;3.20;;;9.10;99.90;;;;;;5009007;28;20025;-80
2023/05/16 05:11:19;;;;;;;20.73;3.60;;;9.30;99.90;;;;;;5009055;28;20033;-80
2023/05/16 05:13:45;;;;;;;22.45;3.00;;;9.30;99.90;;;;;;5025539;28;20044;-79
2023/05/16 05:16:12;;;;;;;15.35;2.65;;;9.40;99.90;;;;;;5011128;28;20041;-82
2023/05/16 05:18:37;;;;;;;13.98;3.22;;;9.50;99.90;;;;;;4995546;28;20064;-81
2023/05/16 05:21:03;;;;;;;21.90;3.35;;;9.60;99.90;;;;;;5027397;28;21665;-82
2023/05/16 05:23:29;;;;;;;25.92;3.88;;;9.60;99.90;;;;;;5009896;28;21076;-81
2023/05/16 05:25:54;;;;;;;12.05;3.10;;;9.80;99.90;;;;;;5024559;28;20037;-81
2023/05/16 05:28:20;;;;;;;16.83;3.08;;;9.80;99.90;;;;;;5009156;28;20036;-81
2023/05/16 05:30:47;;;;;;;17.83;3.20;;;10.00;99.90;;;;;;5009862;28;20103;-81
2023/05/16 05:33:14;;;;;;;13.15;2.25;;;10.10;99.90;;;;;;5010555;28;20557;-81
2023/05/16 05:35:40;;;;;;;14.25;2.58;;;10.20;99.90;;;;;;5009900;28;20041;-81
2023/05/16 05:38:05;;;;;;;16.35;3.17;;;10.30;99.90;;;;;;5009491;28;20082;-81
2023/05/16 05:40:31;;;;;;;12.57;2.47;;;10.50;99.90;;;;;;5014215;28;20083;-82
2023/05/16 05:42:56;;;;;;;14.90;3.00;;;10.60;99.90;;;;;;5025269;28;20063;-81
2023/05/16 05:45:22;;;;;;;17.33;3.55;;;10.70;99.90;;;;;;5036994;28;20541;-81
2023/05/16 05:47:47;;;;;;;16.65;2.78;;;10.80;99.90;;;;;;5001665;28;20501;-81
2023/05/16 05:50:14;;;;;;;22.00;3.53;;;11.00;99.90;;;;;;5025391;28;20029;-82
2023/05/16 05:52:40;;;;;;;9.32;2.08;;;11.10;99.90;;;;;;5025389;28;20496;-82
2023/05/16 05:55:05;;;;;;;22.52;3.00;;;11.10;99.90;;;;;;5024535;28;20090;-82
2023/05/16 05:57:31;;;;;;;19.00;3.35;;;11.30;99.90;;;;;;5024634;28;20116;-82
2023/05/16 05:59:57;;;;;;;21.52;3.50;;;11.50;99.90;;;;;;5041964;28;20059;-81
2023/05/16 06:02:22;;;;;;;19.02;2.72;;;11.60;99.90;;;;;;5024664;28;20028;-81
2023/05/16 06:04:48;;;;;;;20.70;2.58;;;11.70;99.90;;;;;;5009068;28;20040;-81
2023/05/16 06:07:14;;;;;;;8.38;2.45;;;11.70;99.90;;;;;;5008483;28;20029;-81
2023/05/16 06:09:41;;;;;;;15.35;2.85;;;11.90;99.90;;;;;;5024637;28;20051;-82
2023/05/16 06:12:08;;;;;;;13.75;2.38;;;12.00;99.90;;;;;;5021778;28;20049;-80
2023/05/16 06:14:33;;;;;;;12.63;2.63;;;12.10;99.90;;;;;;5008173;28;20503;-81
2023/05/16 06:16:59;;;;;;;11.02;2.15;;;12.30;99.90;;;;;;5024644;28;20107;-80
2023/05/16 06:19:25;;;;;;;11.07;3.17;;;12.30;99.90;;;;;;5009346;28;20026;-79
2023/05/16 06:21:50;;;;;;;15.45;3.03;;;12.30;99.90;;;;;;5024200;28;20480;-80
2023/05/16 06:24:16;;;;;;;14.43;2.50;;;12.40;99.90;;;;;;5038999;28;20553;-80
2023/05/16 06:26:41;;;;;;;12.45;2.42;;;12.20;99.90;;;;;;5024737;28;20033;-82
2023/05/16 06:29:07;;;;;;;14.25;2.10;;;12.30;99.90;;;;;;5008621;28;20033;-81
2023/05/16 06:31:32;;;;;;;11.88;4.15;;;12.30;99.90;;;;;;5024254;28;20162;-81
2023/05/16 06:33:58;;;;;;;14.13;3.20;;;12.40;99.90;;;;;;5008231;28;20029;-81
2023/05/16 06:36:24;;;;;;;10.13;2.10;;;12.40;99.90;;;;;;5024876;28;20025;-80
2023/05/16 06:38:49;;;;;;;19.17;3.42;;;12.50;99.90;;;;;;5033627;28;20175;-80
2023/05/16 06:41:15;;;;;;;12.43;2.85;;;12.50;99.90;;;;;;5041463;28;20116;-80
2023/05/16 06:43:40;;;;;;;15.20;3.20;;;12.50;99.90;;;;;;5040440;28;20456;-80
2023/05/16 06:46:06;;;;;;;10.77;1.85;;;12.70;99.90;;;;;;5039527;28;20481;-80
2023/05/16 06:48:32;;;;;;;13.18;2.53;;;12.90;99.90;;;;;;5026169;28;20108;-80
2023/05/16 06:50:57;;;;;;;14.65;3.33;;;13.10;99.90;;;;;;5018413;28;20037;-81
2023/05/16 06:53:23;;;;;;;20.75;2.53;;;13.10;99.90;;;;;;5023858;28;20393;-80
2023/05/16 06:55:48;;;;;;;17.50;2.05;;;13.10;99.90;;;;;;5007210;28;20025;-80
2023/05/16 06:58:14;;;;;;;17.25;2.65;;;13.10;99.90;;;;;;5008766;28;20037;-80
2023/05/16 07:00:40;;;;;;;10.45;1.80;;;13.00;99.90;;;;;;5008306;28;20025;-80
2023/05/16 07:03:06;;;;;;;10.85;2.38;;;13.00;99.90;;;;;;5007324;28;20811;-80
2023/05/16 07:05:31;;;;;;;12.00;2.38;;;12.70;99.90;;;;;;5041343;28;20033;-80
2023/05/16 07:07:57;;;;;;;10.27;2.50;;;12.60;99.90;;;;;;5022576;28;20052;-80
2023/05/16 07:10:22;;;;;;;15.98;2.40;;;12.50;99.90;;;;;;5022585;28;20477;-80
2023/05/16 07:12:48;;;;;;;12.20;2.38;;;12.30;99.90;;;;;;5007628;28;20041;-80
2023/05/16 07:15:14;;;;;;;14.68;2.20;;;12.10;99.90;;;;;;5039552;28;20040;-81
2023/05/16 07:17:39;;;;;;;12.10;1.88;;;11.90;99.90;;;;;;5008661;28;20033;-80
2023/05/16 07:20:06;;;;;;;11.93;2.00;;;11.90;99.90;;;;;;5007223;28;20044;-79
2023/05/16 07:22:32;;;;;;;10.30;2.15;;;11.70;99.90;;;;;;5010483;28;20111;-80
2023/05/16 07:24:59;;;;;;;10.27;2.00;;;11.80;99.90;;;;;;5010486;28;20171;-80
2023/05/16 07:27:25;;;;;;;16.33;2.50;;;11.80;99.90;;;;;;5026715;28;20741;-80
2023/05/16 07:29:51;;;;;;;8.43;2.00;;;12.00;99.90;;;;;;5027970;28;20480;-81
2023/05/16 07:32:17;;;;;;;11.20;2.22;;;12.10;99.90;;;;;;5036424;28;20041;-80
2023/05/16 07:34:42;;;;;;;13.20;1.90;;;12.20;99.90;;;;;;5029193;28;20043;-81
2023/05/16 07:37:11;;;;;;;6.95;1.58;;;12.40;99.90;;;;;;5028647;28;20039;-81
2023/05/16 07:39:38;;;;;;;13.18;1.80;;;12.60;99.90;;;;;;5012456;28;20037;-81
2023/05/16 07:42:05;;;;;;;11.07;2.00;;;12.90;99.90;;;;;;5026333;28;20036;-81
2023/05/16 07:44:30;;;;;;;11.90;1.70;;;13.10;99.90;;;;;;5011577;28;20476;-81
2023/05/16 07:46:56;;;;;;;6.25;1.65;;;13.40;99.90;;;;;;5010891;28;20140;-81
2023/05/16 07:49:21;;;;;;;8.15;1.77;;;13.70;99.90;;;;;;5010645;28;20081;-80
2023/05/16 07:51:47;;;;;;;9.50;1.23;;;13.90;99.90;;;;;;5024305;28;20155;-80
2023/05/16 07:54:13;;;;;;;10.32;2.00;;;14.10;99.90;;;;;;5025338;28;20481;-81
2023/05/16 07:56:38;;;;;;;6.93;1.20;;;14.30;99.90;;;;;;5039881;28;20194;-80
2023/05/16 07:59:04;;;;;;;9.40;1.40;;;14.50;99.90;;;;;;5024740;28;20025;-81
2023/05/16 08:01:30;;;;;;;7.00;1.60;;;14.70;99.90;;;;;;5025524;28;20176;-80
2023/05/16 08:03:55;;;;;;;7.55;1.33;;;14.70;99.90;;;;;;5040805;28;20130;-80
2023/05/16 08:06:21;;;;;;;12.73;2.58;;;14.90;99.90;;;;;;5027961;28;20025;-80
2023/05/16 08:08:47;;;;;;;9.57;1.45;;;15.10;99.90;;;;;;5011454;28;20420;-80
2023/05/16 08:11:12;;;;;;;7.03;1.35;;;15.30;99.90;;;;;;5010723;28;20028;-81
2023/05/16 08:13:38;;;;;;;7.15;1.33;;;15.60;99.90;;;;;;5026224;28;20546;-80
2023/05/16 08:16:04;;;;;;;7.05;1.45;;;16.10;99.90;;;;;;5025034;28;20068;-81
2023/05/16 08:18:29;;;;;;;6.32;1.13;;;16.40;99.90;;;;;;5042363;28;20613;-80
2023/05/16 08:20:55;;;;;;;6.22;1.35;;;16.80;99.90;;;;;;5010257;28;20524;-80
2023/05/16 08:23:20;;;;;;;4.65;1.15;;;17.00;99.90;;;;;;5010141;28;20033;-80
2023/05/16 08:25:46;;;;;;;5.13;1.23;;;17.00;99.90;;;;;;5010922;28;20029;-80
2023/05/16 08:28:11;;;;;;;6.55;1.25;;;17.30;99.90;;;;;;5009424;28;20501;-80
2023/05/16 08:30:37;;;;;;;8.88;1.00;;;17.50;99.90;;;;;;5008371;28;24819;-80
2023/05/16 08:33:04;;;;;;;9.07;1.20;;;17.80;99.90;;;;;;5041287;28;20091;-80
2023/05/16 08:35:30;;;;;;;4.55;1.30;;;17.90;99.90;;;;;;5010292;28;20021;-80
2023/05/16 08:37:56;;;;;;;2.25;0.98;;;17.90;99.90;;;;;;5025970;28;20608;-80
2023/05/16 08:40:26;;;;;;;5.25;1.27;;;17.90;99.90;;;;;;5010565;28;20100;-80
2023/05/16 08:42:52;;;;;;;3.75;0.88;;;17.60;99.90;;;;;;5006606;28;20108;-81
2023/05/16 08:45:18;;;;;;;6.65;1.33;;;17.90;99.90;;;;;;5010628;28;20025;-80
2023/05/16 08:47:43;;;;;;;8.13;1.77;;;17.80;98.40;;;;;;5026770;28;20040;-80
2023/05/16 08:50:09;;;;;;;7.70;1.30;;;17.50;97.00;;;;;;5009472;28;20039;-80
2023/05/16 08:52:35;;;;;;;6.50;1.38;;;17.30;95.80;;;;;;5008931;28;20120;-80
2023/05/16 08:55:06;;;;;;;5.93;1.13;;;17.20;98.30;;;;;;5008365;28;20037;-80
2023/05/16 08:57:35;;;;;;;6.20;1.38;;;17.00;97.90;;;;;;5010751;28;20108;-80
2023/05/16 09:00:01;;;;;;;6.75;0.90;;;17.00;99.10;;;;;;5032158;28;20504;-80
2023/05/16 09:02:29;;;;;;;7.75;0.75;;;17.00;99.50;;;;;;5026166;28;20102;-80
2023/05/16 09:04:56;;;;;;;5.35;1.65;;;17.30;99.90;;;;;;5025856;28;20606;-80
2023/05/16 09:07:21;;;;;;;8.75;1.15;;;17.40;99.50;;;;;;5024475;28;20040;-80
2023/05/16 09:09:47;;;;;;;10.20;1.70;;;17.60;99.10;;;;;;5010368;28;20033;-80
2023/05/16 09:12:13;;;;;;;8.40;1.65;;;17.70;97.90;;;;;;5009974;28;20036;-80
2023/05/16 09:14:38;;;;;;;6.05;0.98;;;17.80;94.70;;;;;;5025614;28;20064;-80
2023/05/16 09:17:05;;;;;;;3.47;1.20;;;17.70;95.00;;;;;;5042001;28;20033;-80
2023/05/16 09:19:38;;;;;;;3.03;0.90;;;17.30;92.30;;;;;;5019893;28;20521;-80
2023/05/16 09:22:03;;;;;;;6.97;0.75;;;17.10;94.80;;;;;;5041753;28;20033;-80
2023/05/16 09:24:29;;;;;;;5.70;1.10;;;17.00;94.50;;;;;;5009032;28;20517;-80
2023/05/16 09:26:54;;;;;;;5.88;1.00;;;17.20;94.40;;;;;;5008281;28;20032;-80
2023/05/16 09:29:20;;;;;;;8.90;1.55;;;17.30;92.10;;;;;;5023635;28;20037;-80
2023/05/16 09:31:46;;;;;;;7.47;1.35;;;17.60;93.40;;;;;;5009332;28;20029;-80
2023/05/16 09:34:11;;;;;;;5.03;1.67;;;17.90;91.80;;;;;;5025477;28;20473;-80
2023/05/16 09:36:37;;;;;;;4.88;1.23;;;18.10;90.90;;;;;;5024734;28;20276;-80
2023/05/16 09:39:04;;;;;;;4.57;1.02;;;18.20;92.20;;;;;;5025239;28;20029;-80
2023/05/16 09:41:33;;;;;;;4.32;0.77;;;18.10;91.20;;;;;;5025612;28;20528;-80
2023/05/16 09:43:58;;;;;;;5.75;1.02;;;18.20;90.20;;;;;;5039188;28;20030;-80
2023/05/16 09:46:25;;;;;;;4.82;0.80;;;18.50;90.00;;;;;;5007693;28;20017;-80
2023/05/16 09:48:51;;;;;;;5.55;1.20;;;18.80;86.20;;;;;;5025277;28;20082;-80
2023/05/16 09:51:16;;;;;;;4.22;0.82;;;18.90;89.10;;;;;;5025700;28;20431;-80
2023/05/16 09:53:42;;;;;;;4.00;0.98;;;19.10;84.50;;;;;;5024331;28;20041;-80
2023/05/16 09:56:10;;;;;;;5.22;0.85;;;19.20;84.20;;;;;;5025150;28;20047;-80
2023/05/16 09:58:39;;;;;;;5.00;1.00;;;19.40;83.30;;;;;;5024218;28;20480;-80
2023/05/16 10:01:06;;;;;;;1.95;0.55;;;19.70;81.40;;;;;;5039002;28;20036;-80
2023/05/16 10:03:33;;;;;;;2.95;0.60;;;19.70;80.90;;;;;;5009675;28;20517;-79
2023/05/16 10:05:58;;;;;;;2.20;0.82;;;20.00;82.80;;;;;;5025159;28;20068;-80
2023/05/16 10:08:24;;;;;;;5.90;0.85;;;20.30;78.80;;;;;;5025380;28;20063;-79
2023/05/16 10:10:51;;;;;;;5.43;0.70;;;20.00;81.00;;;;;;5022310;28;20029;-79
2023/05/16 10:13:20;;;;;;;7.63;1.05;;;19.90;83.40;;;;;;5024651;28;20041;-79
2023/05/16 10:15:50;;;;;;;7.30;1.70;;;20.00;83.80;;;;;;5023231;28;20072;-81
2023/05/16 10:18:17;;;;;;;4.80;0.70;;;19.90;81.50;;;;;;5009162;28;20063;-80
2023/05/16 10:20:44;;;;;;;3.17;1.10;;;19.80;83.20;;;;;;5023922;28;20036;-80
2023/05/16 10:23:12;;;;;;;6.32;0.82;;;19.70;82.50;;;;;;5023025;28;21529;-79
2023/05/16 10:25:40;;;;;;;5.93;1.67;;;19.80;85.00;;;;;;5006190;28;20037;-80
2023/05/16 10:28:09;;;;;;;7.10;1.52;;;19.90;85.00;;;;;;5037518;28;20728;-80
2023/05/16 10:30:35;;;;;;;3.38;0.95;;;20.00;85.80;;;;;;5023914;28;20037;-80
2023/05/16 10:33:01;;;;;;;3.30;1.02;;;20.30;86.50;;;;;;5002993;28;20437;-80
2023/05/16 10:35:27;;;;;;;2.78;0.80;;;20.60;86.20;;;;;;5005173;28;20555;-79
2023/05/16 10:37:52;;;;;;;6.32;0.82;;;20.80;84.30;;;;;;5021595;28;20112;-79
2023/05/16 10:40:18;;;;;;;5.20;1.23;;;20.80;85.60;;;;;;5023076;28;20032;-80
2023/05/16 10:42:58;;;;;;;5.25;1.38;;;21.20;83.50;;;;;;5006915;28;20163;-80
2023/05/16 10:45:24;;;;;;;2.08;0.90;;;21.30;81.80;;;;;;5025047;28;20033;-80
2023/05/16 10:48:11;;;;;;;5.65;0.88;;;21.30;82.80;;;;;;5039905;28;20029;-80
2023/05/16 10:50:38;;;;;;;2.47;0.70;;;21.70;82.80;;;;;;5037639;28;20565;-80
2023/05/16 10:53:12;;;;;;;5.97;1.40;;;21.80;83.80;;;;;;5039258;28;20033;-79
2023/05/16 10:55:38;;;;;;;6.05;0.95;;;22.10;83.30;;;;;;5042754;28;20123;-80
2023/05/16 10:58:04;;;;;;;5.78;1.17;;;22.00;78.90;;;;;;5012128;28;20509;-80
2023/05/16 11:00:30;;;;;;;3.50;1.30;;;22.30;78.50;;;;;;5046216;28;20033;-78
2023/05/16 11:03:04;;;;;;;4.03;0.85;;;22.20;74.70;;;;;;5026177;28;20116;-78
2023/05/16 11:05:29;;;;;;;2.53;0.80;;;22.20;74.10;;;;;;5028941;28;20075;-78
2023/05/16 11:08:03;;;;;;;7.05;1.42;;;22.20;73.70;;;;;;5043974;28;20463;-79
2023/05/16 11:10:29;;;;;;;4.38;0.88;;;22.30;77.90;;;;;;5038825;28;20047;-80
2023/05/16 11:12:54;;;;;;;4.85;1.30;;;22.20;76.70;;;;;;5025796;28;20440;-80
2023/05/16 11:15:22;;;;;;;3.88;0.93;;;22.10;75.60;;;;;;5011737;28;20059;-79
2023/05/16 11:17:47;;;;;;;7.38;1.17;;;22.00;76.50;;;;;;5028059;28;20463;-79
2023/05/16 11:20:45;;;;;;;7.60;1.20;;;22.00;76.30;;;;;;5010285;28;20033;-79
2023/05/16 11:23:23;;;;;;;3.55;0.60;;;22.20;77.40;;;;;;4969007;28;20493;-79
2023/05/16 11:25:52;;;;;;;4.78;0.80;;;22.50;74.10;;;;;;5039958;28;20043;-78
2023/05/16 11:28:19;;;;;;;2.58;0.80;;;22.70;75.70;;;;;;5028042;28;20029;-79
2023/05/16 11:30:47;;;;;;;9.30;1.60;;;22.80;74.90;;;;;;5026763;28;20044;-78
2023/05/16 11:33:12;;;;;;;6.30;1.08;;;23.00;73.60;;;;;;5010847;28;20112;-78
2023/05/16 11:35:38;;;;;;;5.68;1.17;;;22.90;73.40;;;;;;5025034;28;20611;-78
2023/05/16 11:38:04;;;;;;;4.35;0.68;;;23.00;71.50;;;;;;5043442;28;20039;-78
2023/05/16 11:40:30;;;;;;;3.35;0.82;;;23.10;73.90;;;;;;5009729;28;20195;-78
2023/05/16 11:42:58;;;;;;;4.72;1.00;;;23.20;73.50;;;;;;5012079;28;20059;-79
2023/05/16 11:45:24;;;;;;;1.55;0.80;;;23.20;71.80;;;;;;5029116;28;20116;-78
2023/05/16 11:47:49;;;;;;;3.95;0.68;;;23.00;71.50;;;;;;5027609;28;20179;-78
2023/05/16 11:50:15;;;;;;;5.97;1.10;;;22.70;72.00;;;;;;5028271;28;20033;-79
2023/05/16 11:52:45;;;;;;;5.13;1.00;;;22.30;72.30;;;;;;5046289;28;20486;-78
2023/05/16 11:55:11;;;;;;;7.93;1.05;;;22.20;68.60;;;;;;5044594;28;20037;-78
2023/05/16 11:57:37;;;;;;;4.15;0.90;;;21.90;70.40;;;;;;5010221;28;20393;-78
2023/05/16 12:00:17;;;;;;;4.90;0.73;;;21.80;72.70;;;;;;5027750;28;20040;-78
2023/05/16 12:02:46;;;;;;;2.20;0.70;;;21.80;72.80;;;;;;5036642;28;20029;-78
2023/05/16 12:05:12;;;;;;;1.80;0.50;;;22.00;71.20;;;;;;5012249;28;20052;-79
2023/05/16 12:07:38;;;;;;;1.52;0.52;;;22.00;72.20;;;;;;5041625;28;20045;-78
2023/05/16 12:10:07;;;;;;;5.25;0.88;;;22.00;73.70;;;;;;5009836;28;20098;-78
2023/05/16 12:12:33;;;;;;;1.70;0.63;;;22.10;74.00;;;;;;5034085;28;20505;-78
2023/05/16 12:14:59;;;;;;;3.58;0.70;;;22.40;72.00;;;;;;5023330;28;20037;-79
2023/05/16 12:17:24;;;;;;;4.10;0.50;;;22.50;71.50;;;;;;5025580;28;20032;-79
2023/05/16 12:19:50;;;;;;;2.63;0.70;;;22.70;70.30;;;;;;5026345;28;20664;-78
2023/05/16 12:22:19;;;;;;;5.22;0.75;;;22.90;70.40;;;;;;5009739;28;20030;-79
2023/05/16 12:24:45;;;;;;;1.50;0.47;;;23.20;69.20;;;;;;5025312;28;20030;-79
2023/05/16 12:27:11;;;;;;;2.17;0.73;;;23.50;69.20;;;;;;5009801;28;20139;-79
2023/05/16 12:29:37;;;;;;;3.05;0.77;;;23.60;70.10;;;;;;5011043;28;20029;-78
2023/05/16 12:32:03;;;;;;;2.95;0.57;;;24.00;69.60;;;;;;5042855;28;20121;-78
2023/05/16 12:34:29;;;;;;;4.93;1.00;;;24.10;69.10;;;;;;5042546;28;20453;-78
2023/05/16 12:36:55;;;;;;;4.80;0.90;;;24.00;67.20;;;;;;5024183;28;20065;-78
2023/05/16 12:39:21;;;;;;;1.98;0.70;;;24.00;67.50;;;;;;5027205;28;20497;-78
2023/05/16 12:41:47;;;;;;;4.07;0.80;;;23.90;67.60;;;;;;5009878;28;20120;-78
2023/05/16 12:44:15;;;;;;;2.47;1.13;;;23.60;71.40;;;;;;5042318;28;20104;-79